THY53R LOWS-LROP
Flight info
| Callsign | THY53R |
|---|---|
| Flight time | 0h 49m |
| Altitude | 37000 |
| Route | NEMAL4A NEMAL DCT LIMRA DCT GAMLI DCT DIVAL DCT STEIN DCT SIRDU DCT FAHAZ DCT BUG DCT MEDUD DCT LAMIT DCT TOSVI TOSVI2U |
| Aircraft | B738/M-SDE2E3FGHIRWXY/LB1 |
Departure
| Time | 2026-05-06 15:26 |
|---|---|
| Airport | Salzburg Airport (LOWS) |
Arrival
| Time | 2026-05-06 16:16 |
|---|---|
| Airport | Bucharest Henri Coandă International Airport (LROP) |
| Time | Latitude | Longitude | Altitude | Speed | Heading |
|---|---|---|---|---|---|
| 2026-05-06 15:00 | 47.79144 | 12.99929 | 1419 ft | 0 kts | 281° |
| 2026-05-06 15:18 | 47.79142 | 12.99948 | 1419 ft | 2 kts | 281° |
| 2026-05-06 15:18 | 47.79138 | 12.99972 | 1419 ft | 2 kts | 281° |
| 2026-05-06 15:18 | 47.79135 | 12.99996 | 1419 ft | 2 kts | 282° |
| 2026-05-06 15:18 | 47.79131 | 13.00020 | 1419 ft | 2 kts | 286° |
| 2026-05-06 15:19 | 47.79125 | 13.00043 | 1419 ft | 2 kts | 308° |
| 2026-05-06 15:19 | 47.79117 | 13.00054 | 1419 ft | 1 kts | 336° |
| 2026-05-06 15:21 | 47.79137 | 13.00041 | 1419 ft | 8 kts | 336° |
| 2026-05-06 15:21 | 47.79214 | 12.99992 | 1419 ft | 15 kts | 336° |
| 2026-05-06 15:21 | 47.79306 | 12.99948 | 1419 ft | 13 kts | 12° |
| 2026-05-06 15:21 | 47.79354 | 13.00055 | 1419 ft | 13 kts | 68° |
| 2026-05-06 15:22 | 47.79311 | 13.00143 | 1419 ft | 12 kts | 160° |
| 2026-05-06 15:22 | 47.79234 | 13.00190 | 1419 ft | 12 kts | 157° |
| 2026-05-06 15:22 | 47.79153 | 13.00241 | 1419 ft | 14 kts | 156° |
| 2026-05-06 15:22 | 47.79049 | 13.00307 | 1419 ft | 18 kts | 157° |
| 2026-05-06 15:23 | 47.78921 | 13.00386 | 1419 ft | 22 kts | 157° |
| 2026-05-06 15:23 | 47.78773 | 13.00481 | 1419 ft | 25 kts | 157° |
| 2026-05-06 15:23 | 47.78609 | 13.00584 | 1419 ft | 26 kts | 157° |
| 2026-05-06 15:23 | 47.78451 | 13.00686 | 1419 ft | 24 kts | 156° |
| 2026-05-06 15:24 | 47.78303 | 13.00781 | 1419 ft | 23 kts | 157° |
| 2026-05-06 15:24 | 47.78217 | 13.00852 | 1419 ft | 7 kts | 135° |
| 2026-05-06 15:24 | 47.78211 | 13.00861 | 1422 ft | 1 kts | 135° |
| 2026-05-06 15:24 | 47.78201 | 13.00877 | 1419 ft | 5 kts | 131° |
| 2026-05-06 15:25 | 47.78182 | 13.00966 | 1418 ft | 13 kts | 86° |
| 2026-05-06 15:25 | 47.78238 | 13.01077 | 1421 ft | 14 kts | 7° |
| 2026-05-06 15:25 | 47.78330 | 13.01026 | 1419 ft | 19 kts | 337° |
| 2026-05-06 15:25 | 47.78701 | 13.00793 | 1419 ft | 100 kts | 337° |
| 2026-05-06 15:26 | 47.79574 | 13.00237 | 1478 ft | 165 kts | 338° |
| 2026-05-06 15:26 | 47.80626 | 12.99527 | 2428 ft | 164 kts | 338° |
| 2026-05-06 15:26 | 47.81763 | 12.98989 | 3321 ft | 176 kts | 353° |
| 2026-05-06 15:26 | 47.83055 | 12.99273 | 3673 ft | 208 kts | 31° |
| 2026-05-06 15:27 | 47.84304 | 13.00574 | 3940 ft | 233 kts | 36° |
| 2026-05-06 15:27 | 47.85668 | 13.02034 | 4439 ft | 247 kts | 37° |
| 2026-05-06 15:27 | 47.87134 | 13.03594 | 4791 ft | 268 kts | 36° |
| 2026-05-06 15:27 | 47.88689 | 13.05242 | 5506 ft | 278 kts | 36° |
| 2026-05-06 15:28 | 47.90876 | 13.07560 | 6694 ft | 286 kts | 36° |
| 2026-05-06 15:28 | 47.92923 | 13.12473 | 8330 ft | 291 kts | 87° |
| 2026-05-06 15:28 | 47.92806 | 13.18589 | 9957 ft | 301 kts | 96° |
| 2026-05-06 15:28 | 47.92560 | 13.25235 | 10646 ft | 345 kts | 96° |
| 2026-05-06 15:29 | 47.92320 | 13.32635 | 11800 ft | 366 kts | 95° |
| 2026-05-06 15:29 | 47.92088 | 13.40362 | 13220 ft | 379 kts | 96° |
| 2026-05-06 15:29 | 47.91848 | 13.48198 | 14606 ft | 387 kts | 96° |
| 2026-05-06 15:29 | 47.91702 | 13.56330 | 15919 ft | 397 kts | 95° |
| 2026-05-06 15:30 | 47.91698 | 13.64637 | 17284 ft | 406 kts | 95° |
| 2026-05-06 15:30 | 47.91684 | 13.73136 | 18594 ft | 412 kts | 95° |
| 2026-05-06 15:30 | 47.91645 | 13.81787 | 19650 ft | 423 kts | 95° |
| 2026-05-06 15:30 | 47.91590 | 13.90633 | 20800 ft | 429 kts | 95° |
| 2026-05-06 15:31 | 47.91525 | 13.99613 | 21868 ft | 437 kts | 95° |
| 2026-05-06 15:31 | 47.91460 | 14.08732 | 22887 ft | 444 kts | 95° |
| 2026-05-06 15:31 | 47.91371 | 14.17995 | 23757 ft | 451 kts | 95° |
| 2026-05-06 15:32 | 47.91181 | 14.36921 | 25369 ft | 461 kts | 96° |
| 2026-05-06 15:32 | 47.91076 | 14.46557 | 26208 ft | 466 kts | 95° |
| 2026-05-06 15:32 | 47.90969 | 14.56278 | 26955 ft | 472 kts | 96° |
| 2026-05-06 15:32 | 47.90852 | 14.66117 | 27673 ft | 478 kts | 96° |
| 2026-05-06 15:33 | 47.90621 | 14.76067 | 28369 ft | 478 kts | 102° |
| 2026-05-06 15:33 | 47.88955 | 14.85356 | 29108 ft | 469 kts | 117° |
| 2026-05-06 15:33 | 47.86546 | 14.94455 | 29652 ft | 475 kts | 117° |
| 2026-05-06 15:33 | 47.84131 | 15.03686 | 30206 ft | 479 kts | 117° |
| 2026-05-06 15:34 | 47.81739 | 15.12975 | 30692 ft | 481 kts | 116° |
| 2026-05-06 15:34 | 47.79360 | 15.22242 | 31393 ft | 480 kts | 116° |
| 2026-05-06 15:34 | 47.76964 | 15.31526 | 31944 ft | 482 kts | 117° |
| 2026-05-06 15:34 | 47.74563 | 15.40791 | 32571 ft | 480 kts | 117° |
| 2026-05-06 15:35 | 47.72141 | 15.50085 | 33051 ft | 482 kts | 117° |
| 2026-05-06 15:35 | 47.69721 | 15.59345 | 33784 ft | 480 kts | 117° |
| 2026-05-06 15:35 | 47.67291 | 15.68595 | 34325 ft | 479 kts | 117° |
| 2026-05-06 15:35 | 47.64885 | 15.77731 | 34904 ft | 476 kts | 117° |
| 2026-05-06 15:36 | 47.62471 | 15.86849 | 35410 ft | 474 kts | 117° |
| 2026-05-06 15:36 | 47.60057 | 15.95931 | 35854 ft | 474 kts | 117° |
| 2026-05-06 15:36 | 47.57641 | 16.04999 | 36382 ft | 471 kts | 116° |
| 2026-05-06 15:36 | 47.55230 | 16.14006 | 36804 ft | 470 kts | 117° |
| 2026-05-06 15:37 | 47.50341 | 16.32179 | 36815 ft | 478 kts | 117° |
| 2026-05-06 15:37 | 47.45422 | 16.50370 | 36812 ft | 472 kts | 117° |
| 2026-05-06 15:38 | 47.40775 | 16.68290 | 36818 ft | 464 kts | 114° |
| 2026-05-06 15:38 | 47.36661 | 16.86220 | 36862 ft | 467 kts | 114° |
| 2026-05-06 15:39 | 47.32337 | 17.04538 | 36862 ft | 479 kts | 114° |
| 2026-05-06 15:39 | 47.27897 | 17.23193 | 36847 ft | 482 kts | 114° |
| 2026-05-06 15:40 | 47.23623 | 17.41759 | 36845 ft | 475 kts | 111° |
| 2026-05-06 15:40 | 47.19923 | 17.60247 | 36851 ft | 469 kts | 111° |
| 2026-05-06 15:41 | 47.16099 | 17.78685 | 36888 ft | 476 kts | 111° |
| 2026-05-06 15:41 | 47.12152 | 17.97467 | 36898 ft | 485 kts | 111° |
| 2026-05-06 15:42 | 47.08150 | 18.16369 | 36878 ft | 482 kts | 111° |
| 2026-05-06 15:42 | 47.04190 | 18.34901 | 36880 ft | 471 kts | 111° |
| 2026-05-06 15:43 | 47.00251 | 18.53149 | 36906 ft | 470 kts | 111° |
| 2026-05-06 15:43 | 46.96232 | 18.71602 | 36905 ft | 482 kts | 111° |
| 2026-05-06 15:44 | 46.92106 | 18.90407 | 36887 ft | 486 kts | 111° |
| 2026-05-06 15:44 | 46.87744 | 19.08903 | 36872 ft | 473 kts | 118° |
| 2026-05-06 15:45 | 46.81949 | 19.25978 | 36892 ft | 467 kts | 120° |
| 2026-05-06 15:45 | 46.76199 | 19.43154 | 36908 ft | 477 kts | 119° |
| 2026-05-06 15:46 | 46.70347 | 19.60634 | 36905 ft | 487 kts | 119° |
| 2026-05-06 15:46 | 46.63774 | 19.77718 | 36899 ft | 479 kts | 127° |
| 2026-05-06 15:47 | 46.56501 | 19.93699 | 36897 ft | 469 kts | 126° |
| 2026-05-06 15:47 | 46.49400 | 20.09579 | 36924 ft | 470 kts | 126° |
| 2026-05-06 15:48 | 46.42168 | 20.25691 | 36923 ft | 482 kts | 126° |
| 2026-05-06 15:48 | 46.34782 | 20.42051 | 36910 ft | 486 kts | 126° |
| 2026-05-06 15:49 | 46.27468 | 20.58161 | 36899 ft | 476 kts | 126° |
| 2026-05-06 15:49 | 46.20223 | 20.74021 | 36909 ft | 470 kts | 126° |
| 2026-05-06 15:50 | 46.12967 | 20.89856 | 36947 ft | 479 kts | 125° |
| 2026-05-06 15:50 | 46.06226 | 21.06720 | 36941 ft | 490 kts | 121° |
| 2026-05-06 15:51 | 46.00646 | 21.20863 | 36922 ft | 487 kts | 122° |
| 2026-05-06 15:51 | 45.93951 | 21.37523 | 36927 ft | 475 kts | 122° |
| 2026-05-06 15:52 | 45.87342 | 21.53865 | 36950 ft | 474 kts | 122° |
| 2026-05-06 15:52 | 45.80626 | 21.70377 | 36951 ft | 485 kts | 122° |
| 2026-05-06 15:53 | 45.73747 | 21.87195 | 36935 ft | 491 kts | 122° |
| 2026-05-06 15:53 | 45.66861 | 22.03935 | 36925 ft | 482 kts | 122° |
| 2026-05-06 15:54 | 45.60107 | 22.20249 | 36941 ft | 474 kts | 122° |
| 2026-05-06 15:54 | 45.53341 | 22.36496 | 36980 ft | 479 kts | 122° |
| 2026-05-06 15:55 | 45.46423 | 22.53009 | 36978 ft | 490 kts | 122° |
| 2026-05-06 15:55 | 45.39419 | 22.69637 | 36971 ft | 486 kts | 122° |
| 2026-05-06 15:56 | 45.32523 | 22.85910 | 36958 ft | 475 kts | 121° |
| 2026-05-06 15:56 | 45.25702 | 23.01915 | 36806 ft | 477 kts | 122° |
| 2026-05-06 15:57 | 45.22235 | 23.10014 | 35539 ft | 480 kts | 122° |
| 2026-05-06 15:57 | 45.18805 | 23.18008 | 34256 ft | 481 kts | 121° |
| 2026-05-06 15:57 | 45.15313 | 23.26123 | 32785 ft | 483 kts | 122° |
| 2026-05-06 15:57 | 45.11833 | 23.34189 | 31763 ft | 475 kts | 121° |
| 2026-05-06 15:58 | 45.09287 | 23.42670 | 30849 ft | 465 kts | 104° |
| 2026-05-06 15:58 | 45.07708 | 23.51425 | 30023 ft | 455 kts | 103° |
| 2026-05-06 15:58 | 45.06137 | 23.60036 | 28990 ft | 447 kts | 104° |
| 2026-05-06 15:58 | 45.04561 | 23.68437 | 28010 ft | 438 kts | 104° |
| 2026-05-06 15:59 | 45.02991 | 23.76684 | 27075 ft | 430 kts | 104° |
| 2026-05-06 15:59 | 45.01439 | 23.84788 | 26158 ft | 423 kts | 104° |
| 2026-05-06 15:59 | 44.99909 | 23.92744 | 25232 ft | 416 kts | 104° |
| 2026-05-06 15:59 | 44.98398 | 24.00578 | 24351 ft | 410 kts | 105° |
| 2026-05-06 16:00 | 44.96904 | 24.08294 | 23466 ft | 404 kts | 105° |
| 2026-05-06 16:00 | 44.95425 | 24.15900 | 22426 ft | 398 kts | 105° |
| 2026-05-06 16:00 | 44.93965 | 24.23378 | 21503 ft | 391 kts | 105° |
| 2026-05-06 16:00 | 44.92547 | 24.30615 | 20635 ft | 385 kts | 105° |
| 2026-05-06 16:01 | 44.91127 | 24.37836 | 19776 ft | 379 kts | 105° |
| 2026-05-06 16:01 | 44.89722 | 24.44956 | 18926 ft | 374 kts | 105° |
| 2026-05-06 16:01 | 44.88330 | 24.51981 | 18078 ft | 369 kts | 106° |
| 2026-05-06 16:01 | 44.86954 | 24.58904 | 17149 ft | 364 kts | 106° |
| 2026-05-06 16:02 | 44.85590 | 24.65738 | 16297 ft | 359 kts | 106° |
| 2026-05-06 16:02 | 44.84249 | 24.72445 | 15477 ft | 353 kts | 106° |
| 2026-05-06 16:02 | 44.82922 | 24.79049 | 14667 ft | 349 kts | 106° |
| 2026-05-06 16:02 | 44.81603 | 24.85592 | 13880 ft | 345 kts | 106° |
| 2026-05-06 16:03 | 44.80312 | 24.91973 | 13034 ft | 340 kts | 106° |
| 2026-05-06 16:03 | 44.79666 | 24.95163 | 12641 ft | 337 kts | 106° |
| 2026-05-06 16:03 | 44.79023 | 24.98331 | 12244 ft | 335 kts | 106° |
| 2026-05-06 16:03 | 44.78386 | 25.01467 | 11848 ft | 332 kts | 106° |
| 2026-05-06 16:04 | 44.77752 | 25.04586 | 11453 ft | 330 kts | 106° |
| 2026-05-06 16:04 | 44.77120 | 25.07688 | 11059 ft | 328 kts | 106° |
| 2026-05-06 16:04 | 44.76491 | 25.10764 | 10673 ft | 326 kts | 106° |
| 2026-05-06 16:04 | 44.75874 | 25.13778 | 10519 ft | 312 kts | 106° |
| 2026-05-06 16:05 | 44.74912 | 25.16692 | 10335 ft | 303 kts | 128° |
| 2026-05-06 16:05 | 44.72031 | 25.20683 | 10184 ft | 289 kts | 137° |
| 2026-05-06 16:05 | 44.69173 | 25.24431 | 9940 ft | 274 kts | 137° |
| 2026-05-06 16:05 | 44.66381 | 25.28115 | 9411 ft | 280 kts | 137° |
| 2026-05-06 16:06 | 44.63536 | 25.31882 | 8829 ft | 280 kts | 136° |
| 2026-05-06 16:06 | 44.60714 | 25.35622 | 8239 ft | 277 kts | 136° |
| 2026-05-06 16:06 | 44.57926 | 25.39314 | 7666 ft | 275 kts | 136° |
| 2026-05-06 16:06 | 44.55163 | 25.42967 | 7244 ft | 268 kts | 136° |
| 2026-05-06 16:07 | 44.53290 | 25.45439 | 7066 ft | 259 kts | 136° |
| 2026-05-06 16:07 | 44.52209 | 25.47388 | 6925 ft | 251 kts | 111° |
| 2026-05-06 16:07 | 44.51894 | 25.49755 | 6710 ft | 247 kts | 88° |
| 2026-05-06 16:07 | 44.52033 | 25.52114 | 6488 ft | 245 kts | 82° |
| 2026-05-06 16:08 | 44.52249 | 25.54477 | 6235 ft | 244 kts | 81° |
| 2026-05-06 16:08 | 44.52460 | 25.56836 | 5979 ft | 243 kts | 82° |
| 2026-05-06 16:08 | 44.52675 | 25.59188 | 5726 ft | 243 kts | 79° |
| 2026-05-06 16:08 | 44.52974 | 25.61514 | 5477 ft | 242 kts | 80° |
| 2026-05-06 16:09 | 44.53223 | 25.63855 | 5233 ft | 242 kts | 82° |
| 2026-05-06 16:09 | 44.53291 | 25.64612 | 5152 ft | 242 kts | 83° |
| 2026-05-06 16:09 | 44.53326 | 25.65028 | 5110 ft | 241 kts | 83° |
| 2026-05-06 16:10 | 44.53368 | 25.65539 | 5055 ft | 241 kts | 83° |
| 2026-05-06 16:10 | 44.53544 | 25.67866 | 4817 ft | 240 kts | 84° |
| 2026-05-06 16:10 | 44.53710 | 25.70153 | 4664 ft | 235 kts | 84° |
| 2026-05-06 16:10 | 44.53873 | 25.72429 | 4632 ft | 232 kts | 84° |
| 2026-05-06 16:11 | 44.54035 | 25.74693 | 4379 ft | 240 kts | 85° |
| 2026-05-06 16:11 | 44.54204 | 25.77030 | 4095 ft | 241 kts | 85° |
| 2026-05-06 16:11 | 44.54374 | 25.79375 | 3803 ft | 242 kts | 85° |
| 2026-05-06 16:11 | 44.54545 | 25.81724 | 3519 ft | 242 kts | 85° |
| 2026-05-06 16:12 | 44.54716 | 25.84080 | 3246 ft | 243 kts | 85° |
| 2026-05-06 16:12 | 44.54889 | 25.86442 | 2968 ft | 244 kts | 85° |
| 2026-05-06 16:12 | 44.55061 | 25.88787 | 2673 ft | 239 kts | 86° |
| 2026-05-06 16:12 | 44.55227 | 25.91045 | 2376 ft | 226 kts | 86° |
| 2026-05-06 16:13 | 44.55385 | 25.93167 | 2133 ft | 214 kts | 86° |
| 2026-05-06 16:13 | 44.55535 | 25.95190 | 1872 ft | 202 kts | 86° |
| 2026-05-06 16:13 | 44.55677 | 25.97111 | 1659 ft | 194 kts | 86° |
| 2026-05-06 16:13 | 44.55813 | 25.98945 | 1420 ft | 183 kts | 86° |
| 2026-05-06 16:14 | 44.55940 | 26.00635 | 1228 ft | 165 kts | 86° |
| 2026-05-06 16:14 | 44.56051 | 26.02141 | 1030 ft | 149 kts | 85° |
| 2026-05-06 16:14 | 44.56158 | 26.03568 | 842 ft | 144 kts | 84° |
| 2026-05-06 16:14 | 44.56262 | 26.04951 | 712 ft | 143 kts | 84° |
| 2026-05-06 16:15 | 44.56367 | 26.06336 | 513 ft | 142 kts | 85° |
| 2026-05-06 16:15 | 44.56463 | 26.07628 | 373 ft | 138 kts | 85° |
| 2026-05-06 16:15 | 44.56560 | 26.08922 | 319 ft | 116 kts | 84° |
| 2026-05-06 16:15 | 44.56629 | 26.09833 | 320 ft | 72 kts | 84° |
| 2026-05-06 16:16 | 44.56666 | 26.10316 | 321 ft | 31 kts | 84° |
| 2026-05-06 16:16 | 44.56688 | 26.10607 | 320 ft | 28 kts | 84° |
| 2026-05-06 16:16 | 44.56753 | 26.10764 | 320 ft | 19 kts | 11° |
| 2026-05-06 16:16 | 44.56883 | 26.10749 | 318 ft | 19 kts | 353° |
| 2026-05-06 16:17 | 44.57002 | 26.10699 | 320 ft | 18 kts | 318° |
| 2026-05-06 16:17 | 44.57063 | 26.10552 | 320 ft | 17 kts | 289° |
| 2026-05-06 16:17 | 44.57061 | 26.10388 | 320 ft | 17 kts | 263° |
| 2026-05-06 16:17 | 44.57048 | 26.10230 | 319 ft | 16 kts | 264° |
| 2026-05-06 16:18 | 44.57036 | 26.10078 | 320 ft | 15 kts | 264° |
| 2026-05-06 16:18 | 44.57024 | 26.09926 | 320 ft | 17 kts | 264° |
| 2026-05-06 16:18 | 44.57010 | 26.09743 | 320 ft | 21 kts | 264° |
| 2026-05-06 16:18 | 44.56993 | 26.09522 | 320 ft | 24 kts | 264° |
| 2026-05-06 16:19 | 44.56975 | 26.09285 | 319 ft | 24 kts | 264° |
| 2026-05-06 16:19 | 44.56958 | 26.09064 | 320 ft | 23 kts | 264° |
| 2026-05-06 16:19 | 44.56941 | 26.08847 | 320 ft | 22 kts | 263° |
| 2026-05-06 16:19 | 44.56925 | 26.08636 | 320 ft | 21 kts | 264° |
| 2026-05-06 16:20 | 44.56900 | 26.08443 | 320 ft | 18 kts | 289° |
| 2026-05-06 16:20 | 44.56952 | 26.08299 | 320 ft | 17 kts | 263° |
| 2026-05-06 16:20 | 44.56952 | 26.08209 | 319 ft | 4 kts | 321° |
| 2026-05-06 16:20 | 44.56982 | 26.08203 | 320 ft | 4 kts | 356° |
| 2026-05-06 16:21 | 44.57012 | 26.08199 | 320 ft | 4 kts | 353° |
| 2026-05-06 16:21 | 44.57025 | 26.08197 | 320 ft | 0 kts | 354° |